Houlton, Maine
Current Conditions -  °F | °C
As of 3:53 PM on Tuesday 21 Oct 2014 (Local Time) from KHUL Reporting Station
Overcast Overcast  
Wind Chill: 44°   Ceiling: 5500
Heat Index: 46°   Visibility: 10mi
Dew Point: 33°   Wind: 5mph
Humidity: 61%   Direction: 50°NE
Pressure: 30.14"   Gusts: NA
Location:  46.13°N, 67.84°W
Report Text: KHUL 211953Z AUTO 05004KT 10SM BKN055 BKN070 OVC085 08/01 A3014 RMK AO2 RAB19E29 SLP212 P0000 T00780006
Loading
Personal Weather Stations






























Interactive Weather Map
Tropical Storm Tracking
New forecast layout! Learn more

10-Day Weather Forecast

Advertisements
Track Severe Weather on mobile